Historyczne dane pomiarowe

Dodano dane terminowe – wersja testowa.

Dane z okresu 1951-2019

Wersja bazy: 1.34 [2019-03-16, lista zmian], aktualizacja planowana na 2019-04-15

Dane meteo z obszaru Polski uzyskane na podstawie danych udostępnionych przez Instytut Meteorologii i Gospodarki Wodnej – Państwowy Instytut Badawczy.

 

Wybierz Datę:    

       

TemperaturaWilgotnośćWiatrCiśnienieOpadyŚniegCzas trwania zjawisk
 Stacja t tx tn tng RH VA  wxwx mslp ppp RRR   cm mm wxwxwxwxwxwxwx
1997-10-11 11.5 17.3 9.1 7.3 76.5- 7.3 3.3---- 0.2------------
1997-10-12 10.0 12.0 8.4 6.0 76.5- 8.0 2.0---- 3.8------------
1997-10-13 6.8 10.1 4.7 3.7 92.0- 6.0 2.3---- 0.5------------
1997-10-14 4.5 9.6 0.6 -1.3 79.0- 7.7 0.0---- 1.6------------
1997-10-15 3.7 6.1 2.0 2.0 94.5- 8.0 0.7---- 6.1------------
1997-10-16 1.2 4.2 -1.6 -4.6 86.3- 6.7 0.7---- 1.1------------
1997-10-17 2.6 5.2 1.4 -0.2 88.8- 5.3 1.3---- 0.1------------
1997-10-18 2.3 9.6 -2.9 -6.4 71.8- 0.7 0.7---- 0.0------------
1997-10-19 7.1 11.0 4.7 -0.4 58.5- 5.7 2.7---- 0.0------------
1997-10-20 8.2 12.8 5.4 2.7 62.8- 2.0 2.7---- 1.1------------
1997-10-21 3.3 7.9 0.0 -0.9 78.0- 5.0 1.0---- 0.3------------
1997-10-22 0.1 7.1 -5.5 -7.9 76.5- 8.0 1.7---- 0.0------------
1997-10-23 4.5 8.1 2.1 -0.7 69.0- 1.0 3.0---- 0.0------------
1997-10-24 2.0 7.2 -1.4 -3.1 73.8- 4.3 3.7---- 0.7------------
1997-10-25 0.2 2.6 -2.5 -6.8 79.3- 7.7 2.7---- 3.6------------
1997-10-26 -1.4 3.4 -3.2 -6.8 82.3- 5.0 2.0---- 0.9-- 5---------
1997-10-27 -4.3 -1.6 -7.6-12.4 92.3- 8.0 0.0---- 2.5-- 4---------
1997-10-28 -4.2 -1.9 -5.4-10.0 82.0- 5.3 0.3---- 0.0-- 8---------
1997-10-29 -1.9 1.8 -6.0-10.9 77.3- 8.0 1.3---- 0.0-- 5---------
1997-10-30 1.3 2.3 0.2 -0.7 86.5- 8.0 0.0---- 0.0-- 3---------
1997-10-31 1.3 5.7 -1.3 -3.7 83.0- 2.7 1.3---- 0.0------------
1997-11-01 0.3 9.2 -3.6 -8.0 81.5- 0.7 0.0---- 0.0------------
1997-11-02 1.8 8.8 -3.0 -7.0 77.3- 1.7 1.0---- 0.8------------
1997-11-03 2.7 5.3 0.8 -1.9 81.5- 8.0 3.7---- 0.7------------
1997-11-04 -1.6 1.4 -3.3 -7.4 72.3- 3.7 1.3---- 0.0------------
1997-11-05 0.8 7.3 -5.4 -8.9 66.0- 3.0 1.0---- 0.0------------
1997-11-06 9.1 12.2 5.0 0.4 62.0- 6.3 7.0---- 0.0------------
1997-11-07 13.7 16.0 11.4 8.7 64.0- 6.3 8.3---- 0.0------------
1997-11-08 16.2 19.9 12.7 10.7 61.0- 5.0 3.3---- 0.0------------
1997-11-09 13.2 18.5 10.8 9.0 85.0- 8.0 2.7---- 5.6------------
324.8 ms

 

Źródłem pochodzenia danych jest Instytut Meteorologii i Gospodarki Wodnej – Państwowy Instytut Badawczy. Dane Instytutu Meteorologii i Gospodarki Wodnej – Państwowego Instytutu Badawczego zostały przetworzone.

Dane źródłowe można odnaleźć na stronie https://dane.imgw.pl